Time;durP1;ratioP1;P1;durP2;ratioP2;P2;SDS_P1;SDS_P2;PMS_P1;PMS_P2;Temp;Humidity;BMP_temperature;BMP_pressure;BME280_temperature;BME280_humidity;BME280_pressure;Samples;Min_cycle;Max_cycle;Signal;HPM_P1;HPM_P2
2023/10/24 00:01:33;;;;;;;;;;;;;;;15.11;61.27;100120.97;4199549;28;19975;-55
2023/10/24 00:03:35;;;;;;;;;;;;;;;15.12;61.31;100122.66;4200669;28;19925;-57
2023/10/24 00:05:36;;;;;;;;;;;;;;;15.12;61.10;100127.97;4213549;28;19930;-55
2023/10/24 00:07:38;;;;;;;;;;;;;;;15.13;61.19;100132.31;4208982;28;19947;-54
2023/10/24 00:09:40;;;;;;;;;;;;;;;15.13;60.96;100126.19;4204808;28;19928;-55
2023/10/24 00:11:41;;;;;;;;;;;;;;;15.13;61.20;100123.53;4213099;28;19960;-55
2023/10/24 00:13:43;;;;;;;;;;;;;;;15.13;61.07;100120.91;4201958;28;19924;-55
2023/10/24 00:15:44;;;;;;;;;;;;;;;15.13;61.07;100118.25;4212171;28;19974;-54
2023/10/24 00:17:46;;;;;;;;;;;;;;;15.12;61.36;100112.06;4207057;28;19924;-52
2023/10/24 00:19:48;;;;;;;;;;;;;;;15.11;61.15;100102.44;4196480;28;20290;-55
2023/10/24 00:21:49;;;;;;;;;;;;;;;15.12;61.26;100104.13;4196809;28;20397;-54
2023/10/24 00:23:52;;;;;;;;;;;;;;;15.12;61.36;100106.78;4198673;28;19935;-54
2023/10/24 00:25:53;;;;;;;;;;;;;;;15.11;61.42;100097.13;4208525;28;20308;-53
2023/10/24 00:27:55;;;;;;;;;;;;;;;15.12;61.00;100103.28;4209476;28;19924;-56
2023/10/24 00:29:56;;;;;;;;;;;;;;;15.13;61.41;100105.00;4207727;28;20312;-55
2023/10/24 00:31:58;;;;;;;;;;;;;;;15.13;61.15;100108.47;4207789;28;19946;-55
2023/10/24 00:34:00;;;;;;;;;;;;;;;15.12;61.07;100112.06;4208785;28;19932;-55
2023/10/24 00:36:01;;;;;;;;;;;;;;;15.13;61.16;100108.47;4201029;28;19924;-55
2023/10/24 00:38:03;;;;;;;;;;;;;;;15.13;61.23;100107.66;4179729;28;19928;-56
2023/10/24 00:40:05;;;;;;;;;;;;;;;15.13;61.32;100105.84;4207478;28;19971;-55
2023/10/24 00:42:06;;;;;;;;;;;;;;;15.13;61.01;100108.47;4196595;28;19970;-55
2023/10/24 00:44:09;;;;;;;;;;;;;;;15.13;61.08;100113.78;4202239;28;19932;-53
2023/10/24 00:46:11;;;;;;;;;;;;;;;15.14;61.07;100112.84;4202676;28;20262;-53
2023/10/24 00:48:13;;;;;;;;;;;;;;;15.14;61.03;100110.19;4197020;28;19971;-55
2023/10/24 00:50:15;;;;;;;;;;;;;;;15.14;61.19;100118.13;4208488;28;19924;-55
2023/10/24 00:52:17;;;;;;;;;;;;;;;15.14;61.04;100112.84;4213141;28;19928;-53
2023/10/24 00:54:18;;;;;;;;;;;;;;;15.14;61.46;100112.84;4208389;28;19924;-54
2023/10/24 00:56:21;;;;;;;;;;;;;;;15.12;61.06;100112.06;4203867;28;19928;-54
2023/10/24 00:58:23;;;;;;;;;;;;;;;15.14;61.29;100110.19;4178535;28;20035;-54
2023/10/24 01:00:26;;;;;;;;;;;;;;;15.13;61.44;100102.34;4196242;28;19928;-54
2023/10/24 01:02:27;;;;;;;;;;;;;;;15.13;60.96;100097.06;4196093;28;19979;-55
2023/10/24 01:04:29;;;;;;;;;;;;;;;15.13;61.38;100097.06;4190528;28;19929;-53
2023/10/24 01:06:31;;;;;;;;;;;;;;;15.13;61.15;100095.25;4211526;28;19970;-54
2023/10/24 01:08:32;;;;;;;;;;;;;;;15.13;61.06;100094.41;4195918;28;19929;-54
2023/10/24 01:10:34;;;;;;;;;;;;;;;15.12;61.15;100080.28;4196110;28;20435;-54
2023/10/24 01:12:36;;;;;;;;;;;;;;;15.13;61.13;100082.00;4196053;28;19929;-55
2023/10/24 01:14:40;;;;;;;;;;;;;;;15.12;61.40;100085.59;4195871;28;19924;-54
2023/10/24 01:16:45;;;;;;;;;;;;;;;15.13;61.18;100097.88;4196190;28;20352;-54
2023/10/24 01:18:47;;;;;;;;;;;;;;;15.13;61.04;100089.09;4213230;28;19930;-54
2023/10/24 01:20:49;;;;;;;;;;;;;;;15.12;61.13;100096.19;4201495;28;20046;-54
2023/10/24 01:22:50;;;;;;;;;;;;;;;15.14;61.33;100098.72;4200017;28;20015;-51
2023/10/24 01:24:52;;;;;;;;;;;;;;;15.13;61.05;100097.88;4193878;28;20011;-55
2023/10/24 01:26:55;;;;;;;;;;;;;;;15.13;61.32;100092.59;4210767;28;19931;-53
2023/10/24 01:28:57;;;;;;;;;;;;;;;15.13;61.24;100097.06;4216046;28;19924;-54
2023/10/24 01:30:59;;;;;;;;;;;;;;;15.12;61.50;100093.53;4210096;28;19985;-54
2023/10/24 01:33:00;;;;;;;;;;;;;;;15.13;61.27;100091.75;4215724;28;19928;-55
2023/10/24 01:35:02;;;;;;;;;;;;;;;15.13;61.50;100097.06;4214460;28;19933;-55
2023/10/24 01:37:03;;;;;;;;;;;;;;;15.14;61.35;100104.03;4204124;28;19931;-53
2023/10/24 01:39:07;;;;;;;;;;;;;;;15.13;61.43;100103.19;4197997;28;20027;-53
2023/10/24 01:41:08;;;;;;;;;;;;;;;15.14;61.48;100104.88;4190543;28;20402;-53
2023/10/24 01:43:10;;;;;;;;;;;;;;;15.14;61.22;100101.38;4210372;28;20305;-54
2023/10/24 01:45:11;;;;;;;;;;;;;;;15.12;61.47;100093.53;4214406;28;19924;-55
2023/10/24 01:47:13;;;;;;;;;;;;;;;15.13;61.29;100100.53;4203985;28;20019;-55
2023/10/24 01:49:14;;;;;;;;;;;;;;;15.13;61.27;100099.69;4215587;28;19924;-54
2023/10/24 01:51:16;;;;;;;;;;;;;;;15.13;61.40;100089.09;4209472;28;19925;-55
2023/10/24 01:53:18;;;;;;;;;;;;;;;15.13;61.47;100084.66;4208222;28;19971;-54
2023/10/24 01:55:19;;;;;;;;;;;;;;;15.13;61.28;100087.28;4215341;28;19930;-55
2023/10/24 01:57:21;;;;;;;;;;;;;;;15.13;61.17;100075.88;4198344;28;20473;-54
2023/10/24 01:59:22;;;;;;;;;;;;;;;15.13;61.19;100079.34;4198812;28;19935;-55
2023/10/24 02:01:24;;;;;;;;;;;;;;;15.14;61.44;100080.19;4199898;28;20015;-56
2023/10/24 02:03:25;;;;;;;;;;;;;;;15.13;61.19;100084.66;4207581;28;19935;-54
2023/10/24 02:05:27;;;;;;;;;;;;;;;15.13;61.20;100076.69;4198896;28;19931;-52
2023/10/24 02:07:29;;;;;;;;;;;;;;;15.14;61.22;100072.25;4208797;28;19924;-54
2023/10/24 02:09:31;;;;;;;;;;;;;;;15.14;61.18;100072.25;4200154;28;19924;-54
2023/10/24 02:11:33;;;;;;;;;;;;;;;15.13;61.38;100065.28;4200025;28;19924;-54
2023/10/24 02:13:34;;;;;;;;;;;;;;;15.13;61.41;100068.75;4209063;28;20556;-55
2023/10/24 02:15:37;;;;;;;;;;;;;;;15.14;61.29;100069.59;4180726;28;19925;-55
2023/10/24 02:17:41;;;;;;;;;;;;;;;15.14;61.19;100069.59;4189668;28;19929;-54
2023/10/24 02:19:43;;;;;;;;;;;;;;;15.13;61.33;100067.91;4214999;28;19924;-56
2023/10/24 02:21:45;;;;;;;;;;;;;;;15.13;61.47;100065.28;4209549;28;19932;-55
2023/10/24 02:23:46;;;;;;;;;;;;;;;15.14;61.23;100069.59;4202485;28;20387;-54
2023/10/24 02:25:48;;;;;;;;;;;;;;;15.14;61.47;100069.59;4212435;28;19946;-55
2023/10/24 02:27:49;;;;;;;;;;;;;;;15.14;61.26;100072.25;4206031;28;19932;-55
2023/10/24 02:29:51;;;;;;;;;;;;;;;15.14;61.24;100070.47;4202508;28;19978;-55
2023/10/24 02:31:52;;;;;;;;;;;;;;;15.14;61.53;100067.81;4206892;28;20019;-54
2023/10/24 02:33:54;;;;;;;;;;;;;;;15.13;61.50;100075.88;4209271;28;19975;-54
2023/10/24 02:36:08;;;;;;;;;;;;;;;15.13;61.18;100071.41;4197969;28;20309;-50
2023/10/24 02:38:10;;;;;;;;;;;;;;;15.13;61.36;100070.56;4206121;28;20030;-54
2023/10/24 02:40:11;;;;;;;;;;;;;;;15.12;61.41;100069.69;4202392;28;20027;-55
2023/10/24 02:42:13;;;;;;;;;;;;;;;15.13;61.71;100071.41;4199392;28;20540;-55
2023/10/24 02:44:14;;;;;;;;;;;;;;;15.13;61.25;100063.47;4209124;28;20389;-56
2023/10/24 02:46:16;;;;;;;;;;;;;;;15.14;61.26;100062.50;4197761;28;19939;-54
2023/10/24 02:48:18;;;;;;;;;;;;;;;15.14;61.33;100066.94;4203661;28;19977;-56
2023/10/24 02:50:20;;;;;;;;;;;;;;;15.13;61.30;100063.47;4208517;28;20146;-53
2023/10/24 02:52:21;;;;;;;;;;;;;;;15.14;61.44;100062.50;4195498;28;19935;-55
2023/10/24 02:54:23;;;;;;;;;;;;;;;15.14;61.34;100056.34;4185008;28;19979;-55
2023/10/24 02:56:25;;;;;;;;;;;;;;;15.13;61.22;100058.16;4214747;28;20436;-54
2023/10/24 02:58:26;;;;;;;;;;;;;;;15.14;61.34;100059.00;4209603;28;20317;-55
2023/10/24 03:00:29;;;;;;;;;;;;;;;15.14;61.21;100059.00;4206781;28;20036;-54
2023/10/24 03:02:31;;;;;;;;;;;;;;;15.14;61.59;100059.00;4203409;28;19932;-55
2023/10/24 03:04:32;;;;;;;;;;;;;;;15.13;61.35;100055.50;4209506;28;20019;-55
2023/10/24 03:06:34;;;;;;;;;;;;;;;15.13;61.50;100052.03;4197658;28;19929;-54
2023/10/24 03:08:36;;;;;;;;;;;;;;;15.14;61.36;100054.56;4200654;28;19928;-54
2023/10/24 03:10:39;;;;;;;;;;;;;;;15.13;61.26;100047.56;4206950;28;20401;-53
2023/10/24 03:12:41;;;;;;;;;;;;;;;15.13;61.23;100044.91;4197649;28;19981;-52
2023/10/24 03:14:43;;;;;;;;;;;;;;;15.15;61.33;100050.97;4208243;28;19947;-53
2023/10/24 03:16:44;;;;;;;;;;;;;;;15.14;61.57;100051.06;4199028;28;19924;-54
2023/10/24 03:18:46;;;;;;;;;;;;;;;15.14;61.53;100051.91;4206933;28;20316;-54
2023/10/24 03:20:48;;;;;;;;;;;;;;;15.14;61.50;100045.75;4197297;28;20027;-54
2023/10/24 03:22:49;;;;;;;;;;;;;;;15.15;61.26;100047.47;4198153;28;19925;-55
2023/10/24 03:24:51;;;;;;;;;;;;;;;15.13;61.48;100055.50;4210786;28;20023;-53
2023/10/24 03:26:52;;;;;;;;;;;;;;;15.14;61.30;100045.75;4199781;28;20369;-56
2023/10/24 03:28:54;;;;;;;;;;;;;;;15.14;61.69;100049.28;4198476;28;20006;-53
2023/10/24 03:31:05;;;;;;;;;;;;;;;15.14;61.68;100040.47;4211128;28;19962;-55
2023/10/24 03:33:07;;;;;;;;;;;;;;;15.14;61.30;100053.69;4195536;28;19970;-50
2023/10/24 03:35:08;;;;;;;;;;;;;;;15.14;61.65;100046.63;4209381;28;20434;-55
2023/10/24 03:37:10;;;;;;;;;;;;;;;15.15;61.34;100052.75;4200707;28;20278;-55
2023/10/24 03:39:11;;;;;;;;;;;;;;;15.05;61.33;100041.91;4198502;28;19960;-54
2023/10/24 03:41:13;;;;;;;;;;;;;;;15.14;61.44;100057.22;4189756;28;19929;-54
2023/10/24 03:43:14;;;;;;;;;;;;;;;15.14;61.33;100062.50;4197037;28;19978;-55
2023/10/24 03:45:16;;;;;;;;;;;;;;;15.14;61.72;100059.00;4203705;28;19928;-54
2023/10/24 03:47:18;;;;;;;;;;;;;;;15.15;61.62;100060.69;4202114;28;19936;-55
2023/10/24 03:49:19;;;;;;;;;;;;;;;15.15;61.53;100064.22;4197819;28;19926;-54
2023/10/24 03:51:21;;;;;;;;;;;;;;;15.14;61.82;100054.56;4207157;28;19933;-55
2023/10/24 03:53:22;;;;;;;;;;;;;;;15.14;61.57;100056.34;4213932;28;20018;-55
2023/10/24 03:55:24;;;;;;;;;;;;;;;15.13;61.71;100055.50;4208326;28;19931;-55
2023/10/24 03:57:25;;;;;;;;;;;;;;;15.13;61.47;100052.88;4206590;28;19932;-54
2023/10/24 03:59:27;;;;;;;;;;;;;;;15.14;61.70;100054.56;4213591;28;19924;-54
2023/10/24 04:01:28;;;;;;;;;;;;;;;15.13;61.76;100055.50;4206983;28;19931;-55
2023/10/24 04:03:31;;;;;;;;;;;;;;;15.14;61.79;100053.69;4213307;28;19928;-55
2023/10/24 04:05:33;;;;;;;;;;;;;;;15.14;61.68;100059.00;4209880;28;19930;-56
2023/10/24 04:07:35;;;;;;;;;;;;;;;15.13;61.56;100057.31;4204718;28;19924;-53
2023/10/24 04:09:37;;;;;;;;;;;;;;;15.13;61.84;100055.50;4213517;28;20007;-53
2023/10/24 04:11:40;;;;;;;;;;;;;;;15.14;61.61;100054.56;4201707;28;20002;-53
2023/10/24 04:13:45;;;;;;;;;;;;;;;15.14;61.83;100051.91;4212341;28;19950;-55
2023/10/24 04:15:47;;;;;;;;;;;;;;;15.14;61.84;100051.91;4210613;28;19931;-53
2023/10/24 04:17:48;;;;;;;;;;;;;;;15.13;61.63;100047.56;4203896;28;19924;-54
2023/10/24 04:19:50;;;;;;;;;;;;;;;15.13;61.52;100050.22;4213575;28;19958;-54
2023/10/24 04:21:52;;;;;;;;;;;;;;;15.14;61.49;100048.41;4198728;28;20254;-55
2023/10/24 04:23:54;;;;;;;;;;;;;;;15.14;61.86;100049.28;4197893;28;19925;-55
2023/10/24 04:25:55;;;;;;;;;;;;;;;15.14;61.75;100048.41;4209273;28;19935;-53
2023/10/24 04:27:58;;;;;;;;;;;;;;;15.14;61.89;100048.41;4202065;28;20027;-53
2023/10/24 04:30:00;;;;;;;;;;;;;;;15.14;61.56;100048.41;4213525;28;19925;-53
2023/10/24 04:32:02;;;;;;;;;;;;;;;15.14;61.68;100049.28;4204650;28;19928;-55
2023/10/24 04:34:07;;;;;;;;;;;;;;;15.13;61.65;100050.22;4209211;28;19924;-53
2023/10/24 04:36:10;;;;;;;;;;;;;;;15.14;61.72;100048.41;4211747;28;19925;-54
2023/10/24 04:38:12;;;;;;;;;;;;;;;15.13;61.80;100052.88;4202063;28;20403;-54
2023/10/24 04:40:13;;;;;;;;;;;;;;;15.13;61.63;100049.38;4213084;28;19924;-53
2023/10/24 04:42:16;;;;;;;;;;;;;;;15.13;61.71;100036.97;4205216;28;20082;-54
2023/10/24 04:44:17;;;;;;;;;;;;;;;15.14;61.99;100043.09;4208439;28;19970;-54
2023/10/24 04:46:19;;;;;;;;;;;;;;;15.14;61.92;100048.41;4211326;28;19924;-55
2023/10/24 04:48:20;;;;;;;;;;;;;;;15.13;61.91;100050.22;4201702;28;20340;-55
2023/10/24 04:50:22;;;;;;;;;;;;;;;15.14;62.00;100051.06;4213076;28;20354;-53
2023/10/24 04:52:23;;;;;;;;;;;;;;;15.14;61.85;100056.34;4208932;28;20082;-53
2023/10/24 04:54:25;;;;;;;;;;;;;;;15.14;61.75;100051.06;4206115;28;20340;-54
2023/10/24 04:56:27;;;;;;;;;;;;;;;15.13;61.84;100044.91;4200218;28;20305;-53
2023/10/24 04:58:29;;;;;;;;;;;;;;;15.13;61.94;100042.28;4211624;28;19924;-55
2023/10/24 05:00:30;;;;;;;;;;;;;;;15.14;61.98;100033.38;4199170;28;19938;-55
2023/10/24 05:02:32;;;;;;;;;;;;;;;15.12;62.07;100029.13;4206337;28;19970;-55
2023/10/24 05:04:34;;;;;;;;;;;;;;;15.13;61.66;100031.69;4189716;28;19925;-55
2023/10/24 05:06:35;;;;;;;;;;;;;;;15.13;61.78;100039.63;4199822;28;19924;-55
2023/10/24 05:08:37;;;;;;;;;;;;;;;15.13;61.77;100049.38;4211264;28;19946;-55
2023/10/24 05:10:38;;;;;;;;;;;;;;;15.13;61.70;100042.28;4200004;28;19928;-54
2023/10/24 05:12:40;;;;;;;;;;;;;;;15.13;61.85;100033.50;4201837;28;19924;-54
2023/10/24 05:14:42;;;;;;;;;;;;;;;15.13;61.84;100044.91;4209295;28;20408;-56
2023/10/24 05:16:43;;;;;;;;;;;;;;;15.13;61.70;100047.56;4199249;28;19928;-54
2023/10/24 05:18:45;;;;;;;;;;;;;;;15.13;61.90;100044.91;4200211;28;19931;-54
2023/10/24 05:20:46;;;;;;;;;;;;;;;15.14;62.06;100048.41;4199220;28;19971;-55
2023/10/24 05:22:48;;;;;;;;;;;;;;;15.13;62.09;100033.50;4199612;28;20007;-55
2023/10/24 05:24:50;;;;;;;;;;;;;;;15.13;61.95;100038.78;4208697;28;19924;-55
2023/10/24 05:26:51;;;;;;;;;;;;;;;15.12;62.26;100029.97;4211361;28;19977;-55
2023/10/24 05:28:53;;;;;;;;;;;;;;;15.13;61.85;100036.97;4211119;28;20343;-55
2023/10/24 05:30:54;;;;;;;;;;;;;;;15.13;61.67;100036.13;4205638;28;19924;-54
2023/10/24 05:32:58;;;;;;;;;;;;;;;15.13;62.14;100036.97;4213572;28;19970;-56
2023/10/24 05:34:59;;;;;;;;;;;;;;;15.13;62.17;100036.97;4210363;28;19928;-56
2023/10/24 05:37:01;;;;;;;;;;;;;;;15.13;61.85;100036.13;4199017;28;20424;-54
2023/10/24 05:39:03;;;;;;;;;;;;;;;15.13;62.12;100026.38;4205846;28;19955;-55
2023/10/24 05:41:04;;;;;;;;;;;;;;;15.13;61.93;100034.31;4204612;28;19924;-56
2023/10/24 05:43:06;;;;;;;;;;;;;;;15.13;62.07;100036.13;4182480;28;19925;-56
2023/10/24 05:45:08;;;;;;;;;;;;;;;15.13;61.85;100020.25;4203808;28;19931;-53
2023/10/24 05:47:09;;;;;;;;;;;;;;;15.13;62.29;100020.25;4215491;28;20400;-51
2023/10/24 05:49:11;;;;;;;;;;;;;;;15.12;61.91;100016.72;4209912;28;20007;-55
2023/10/24 05:51:20;;;;;;;;;;;;;;;15.12;62.11;100027.31;4207725;28;20020;-55
2023/10/24 05:53:22;;;;;;;;;;;;;;;15.12;62.27;100023.84;4214947;28;19963;-54
2023/10/24 05:55:23;;;;;;;;;;;;;;;15.12;61.93;100029.97;4210421;28;19959;-55
2023/10/24 05:57:25;;;;;;;;;;;;;;;15.13;62.43;100042.28;4198826;28;19929;-56
2023/10/24 05:59:27;;;;;;;;;;;;;;;15.13;62.48;100036.13;4202707;28;19955;-57
2023/10/24 06:01:28;;;;;;;;;;;;;;;15.14;62.37;100040.47;4208830;28;19924;-56
2023/10/24 06:03:30;;;;;;;;;;;;;;;15.14;62.19;100041.31;4215572;28;20389;-55
2023/10/24 06:05:32;;;;;;;;;;;;;;;15.12;62.54;100037.91;4210040;28;20313;-56
2023/10/24 06:07:33;;;;;;;;;;;;;;;15.12;62.31;100031.78;4198937;28;19931;-55
2023/10/24 06:09:35;;;;;;;;;;;;;;;15.13;62.52;100046.72;4200728;28;19931;-56
2023/10/24 06:11:36;;;;;;;;;;;;;;;15.13;62.29;100046.72;4208125;28;19928;-56
2023/10/24 06:13:38;;;;;;;;;;;;;;;15.13;62.42;100050.22;4198221;28;19925;-55
2023/10/24 06:15:39;;;;;;;;;;;;;;;15.12;62.19;100045.88;4208269;28;19931;-55
2023/10/24 06:17:41;;;;;;;;;;;;;;;15.13;62.27;100060.81;4207115;28;19924;-55
2023/10/24 06:19:45;;;;;;;;;;;;;;;15.13;62.21;100060.81;4209765;28;20049;-55
2023/10/24 06:21:46;;;;;;;;;;;;;;;15.13;62.44;100066.09;4198096;28;19924;-56
2023/10/24 06:23:48;;;;;;;;;;;;;;;15.13;62.27;100068.75;4198972;28;19978;-55
2023/10/24 06:25:49;;;;;;;;;;;;;;;15.13;62.44;100062.63;4210047;28;19939;-55
2023/10/24 06:27:51;;;;;;;;;;;;;;;15.13;62.16;100067.91;4211145;28;19928;-55
2023/10/24 06:29:53;;;;;;;;;;;;;;;15.12;62.52;100072.34;4213422;28;19935;-55
2023/10/24 06:31:54;;;;;;;;;;;;;;;15.12;62.57;100075.00;4210699;28;20015;-54
2023/10/24 06:33:56;;;;;;;;;;;;;;;15.12;62.28;100075.00;4215090;28;19968;-54
2023/10/24 06:35:58;;;;;;;;;;;;;;;15.12;62.49;100077.66;4213049;28;19930;-54
2023/10/24 06:37:59;;;;;;;;;;;;;;;15.12;62.59;100076.81;4198099;28;19925;-54
2023/10/24 06:40:01;;;;;;;;;;;;;;;15.11;62.33;100070.66;4198041;28;19924;-55
2023/10/24 06:42:03;;;;;;;;;;;;;;;15.12;62.50;100077.66;4197748;28;19989;-58
2023/10/24 06:44:04;;;;;;;;;;;;;;;15.12;62.45;100072.34;4197822;28;19924;-54
2023/10/24 06:46:06;;;;;;;;;;;;;;;15.12;62.37;100079.47;4197793;28;19963;-55
2023/10/24 06:48:07;;;;;;;;;;;;;;;15.12;62.40;100080.28;4197523;28;19925;-54
2023/10/24 06:50:09;;;;;;;;;;;;;;;15.13;62.49;100089.09;4200724;28;19927;-56
2023/10/24 06:52:11;;;;;;;;;;;;;;;15.13;62.55;100092.59;4184315;28;20015;-55
2023/10/24 06:54:13;;;;;;;;;;;;;;;15.12;62.43;100088.25;4214508;28;19932;-55
2023/10/24 06:56:15;;;;;;;;;;;;;;;15.12;62.31;100082.09;4210121;28;20300;-56
2023/10/24 06:58:19;;;;;;;;;;;;;;;15.11;62.27;100081.25;4205957;28;19924;-55
2023/10/24 07:00:22;;;;;;;;;;;;;;;15.12;62.28;100092.69;4214454;28;19924;-56
2023/10/24 07:02:23;;;;;;;;;;;;;;;15.11;62.24;100094.47;4212246;28;20022;-54
2023/10/24 07:04:25;;;;;;;;;;;;;;;15.13;62.23;100105.84;4214371;28;19970;-54
2023/10/24 07:06:26;;;;;;;;;;;;;;;15.13;62.40;100107.66;4211586;28;19924;-55
2023/10/24 07:08:28;;;;;;;;;;;;;;;15.13;62.11;100113.78;4204391;28;19924;-54
2023/10/24 07:10:31;;;;;;;;;;;;;;;15.12;62.51;100112.06;4214053;28;20286;-55
2023/10/24 07:12:33;;;;;;;;;;;;;;;15.12;62.31;100113.88;4203782;28;19933;-55
2023/10/24 07:14:34;;;;;;;;;;;;;;;15.11;62.36;100128.91;4211830;28;19924;-55
2023/10/24 07:16:36;;;;;;;;;;;;;;;15.12;62.50;100121.84;4211383;28;20355;-54
2023/10/24 07:18:38;;;;;;;;;;;;;;;15.12;62.31;100124.47;4212088;28;20345;-56
2023/10/24 07:20:40;;;;;;;;;;;;;;;15.12;62.50;100133.25;4214462;28;20274;-56
2023/10/24 07:22:41;;;;;;;;;;;;;;;15.12;62.43;100125.31;4201212;28;19994;-53
2023/10/24 07:24:43;;;;;;;;;;;;;;;15.12;62.24;100137.72;4205630;28;19934;-55
2023/10/24 07:26:45;;;;;;;;;;;;;;;15.12;62.16;100138.56;4207808;28;20424;-54
2023/10/24 07:28:46;;;;;;;;;;;;;;;15.11;62.52;100142.16;4202574;28;19924;-54
2023/10/24 07:30:51;;;;;;;;;;;;;;;15.11;62.43;100147.44;4212360;28;19969;-55
2023/10/24 07:32:55;;;;;;;;;;;;;;;15.11;62.20;100144.81;4204465;28;19939;-55
2023/10/24 07:34:57;;;;;;;;;;;;;;;15.11;62.41;100144.81;4201920;28;20388;-55
2023/10/24 07:36:59;;;;;;;;;;;;;;;15.12;62.09;100148.31;4198163;28;20297;-55
2023/10/24 07:39:01;;;;;;;;;;;;;;;15.12;62.46;100150.97;4208429;28;19969;-55
2023/10/24 07:41:03;;;;;;;;;;;;;;;15.12;62.01;100141.22;4196990;28;20023;-52
2023/10/24 07:43:05;;;;;;;;;;;;;;;15.13;62.29;100139.44;4202875;28;19928;-54
2023/10/24 07:45:07;;;;;;;;;;;;;;;15.13;61.92;100134.97;4203549;28;20501;-54
2023/10/24 07:47:08;;;;;;;;;;;;;;;15.13;61.99;100134.97;4197246;28;19924;-54
2023/10/24 07:49:10;;;;;;;;;;;;;;;15.14;62.12;100139.31;4208622;28;20063;-55
2023/10/24 07:51:12;;;;;;;;;;;;;;;15.16;62.09;100147.16;4209099;28;20018;-54
2023/10/24 07:53:14;;;;;;;;;;;;;;;15.16;62.31;100144.50;4208451;28;20465;-54
2023/10/24 07:55:16;;;;;;;;;;;;;;;15.18;62.33;100150.56;4205218;28;20015;-55
2023/10/24 07:57:17;;;;;;;;;;;;;;;15.17;62.02;100152.34;4210597;28;19924;-54
2023/10/24 07:59:19;;;;;;;;;;;;;;;15.17;62.17;100147.06;4198029;28;20364;-54
2023/10/24 08:01:20;;;;;;;;;;;;;;;15.17;62.33;100143.56;4197737;28;19925;-55
2023/10/24 08:03:22;;;;;;;;;;;;;;;15.18;62.36;100145.28;4210272;28;19930;-54
2023/10/24 08:05:24;;;;;;;;;;;;;;;15.18;62.07;100148.75;4203644;28;19981;-54
2023/10/24 08:07:25;;;;;;;;;;;;;;;15.19;62.06;100146.97;4213304;28;19931;-56
2023/10/24 08:09:27;;;;;;;;;;;;;;;15.21;62.12;100145.06;4202602;28;19924;-56
2023/10/24 08:11:28;;;;;;;;;;;;;;;15.20;62.13;100151.34;4211149;28;19928;-56
2023/10/24 08:13:30;;;;;;;;;;;;;;;15.21;62.23;100155.66;4211937;28;20014;-55
2023/10/24 08:15:31;;;;;;;;;;;;;;;15.21;61.87;100155.66;4202131;28;19924;-54
2023/10/24 08:17:33;;;;;;;;;;;;;;;15.22;61.72;100148.59;4213034;28;19924;-56
2023/10/24 08:19:35;;;;;;;;;;;;;;;15.22;61.89;100157.38;4200572;28;20424;-55
2023/10/24 08:21:36;;;;;;;;;;;;;;;15.22;61.78;100160.00;4196544;28;19924;-55
2023/10/24 08:23:38;;;;;;;;;;;;;;;15.23;62.10;100152.94;4202367;28;19932;-55
2023/10/24 08:25:40;;;;;;;;;;;;;;;15.23;62.10;100153.78;4180873;28;19931;-55
2023/10/24 08:27:41;;;;;;;;;;;;;;;15.23;61.75;100155.59;4196518;28;19970;-56
2023/10/24 08:29:43;;;;;;;;;;;;;;;15.23;61.89;100156.41;4203155;28;19971;-56
2023/10/24 08:31:44;;;;;;;;;;;;;;;15.23;61.75;100159.06;4211609;28;19927;-55
2023/10/24 08:33:58;;;;;;;;;;;;;;;15.22;61.89;100152.06;4210874;28;19935;-55
2023/10/24 08:36:00;;;;;;;;;;;;;;;15.24;61.89;100159.94;4207798;28;19925;-55
2023/10/24 08:38:03;;;;;;;;;;;;;;;15.23;61.76;100153.78;4196134;28;19943;-56
2023/10/24 08:40:05;;;;;;;;;;;;;;;15.24;61.85;100160.78;4203069;28;20420;-55
2023/10/24 08:42:09;;;;;;;;;;;;;;;15.24;61.66;100160.78;4201785;28;20297;-55
2023/10/24 08:44:12;;;;;;;;;;;;;;;15.23;61.77;100168.81;4197616;28;19924;-55
2023/10/24 08:46:14;;;;;;;;;;;;;;;15.24;61.66;100174.03;4207906;28;20027;-57
2023/10/24 08:48:16;;;;;;;;;;;;;;;15.24;61.45;100171.38;4196123;28;19929;-55
2023/10/24 08:50:17;;;;;;;;;;;;;;;15.25;61.61;100174.84;4198895;28;20329;-56
2023/10/24 08:52:19;;;;;;;;;;;;;;;15.25;61.47;100166.91;4202738;28;19925;-57
2023/10/24 08:54:31;;;;;;;;;;;;;;;15.23;61.63;100172.31;4196802;28;19928;-54
2023/10/24 08:56:34;;;;;;;;;;;;;;;15.25;61.82;100169.56;4201453;28;19982;-56
2023/10/24 08:58:37;;;;;;;;;;;;;;;15.25;61.70;100170.44;4213202;28;19963;-55
2023/10/24 09:00:39;;;;;;;;;;;;;;;15.26;61.63;100166.84;4206777;28;19924;-54
2023/10/24 09:02:41;;;;;;;;;;;;;;;15.26;61.54;100174.78;4208761;28;20458;-56
2023/10/24 09:04:43;;;;;;;;;;;;;;;15.27;61.38;100171.16;4212114;28;19924;-55
2023/10/24 09:06:46;;;;;;;;;;;;;;;15.28;61.65;100174.69;4200504;28;19973;-55
2023/10/24 09:08:51;;;;;;;;;;;;;;;15.28;61.62;100180.81;4212942;28;20322;-55
2023/10/24 09:10:52;;;;;;;;;;;;;;;15.27;61.61;100173.81;4207974;28;19996;-53
2023/10/24 09:12:54;;;;;;;;;;;;;;;15.28;61.50;100178.16;4205395;28;19924;-54
2023/10/24 09:14:56;;;;;;;;;;;;;;;15.27;61.38;100181.75;4212838;28;19978;-56
2023/10/24 09:17:00;;;;;;;;;;;;;;;15.28;61.50;100180.81;4208432;28;19925;-56
2023/10/24 09:19:11;;;;;;;;;;;;;;;15.29;61.51;100179.03;4196481;28;20425;-55
2023/10/24 09:21:12;;;;;;;;;;;;;;;15.29;61.50;100184.31;4195562;28;19928;-54
2023/10/24 09:23:14;;;;;;;;;;;;;;;15.29;61.27;100186.97;4200438;28;20400;-56
2023/10/24 09:25:20;;;;;;;;;;;;;;;15.30;61.31;100183.38;4202544;28;19928;-55
2023/10/24 09:27:23;;;;;;;;;;;;;;;15.30;61.47;100192.16;4200115;28;19931;-55
2023/10/24 09:29:27;;;;;;;;;;;;;;;15.30;61.56;100196.63;4212809;28;19929;-55
2023/10/24 09:31:28;;;;;;;;;;;;;;;15.30;61.41;100191.34;4208872;28;19933;-55
2023/10/24 09:33:32;;;;;;;;;;;;;;;15.30;61.20;100192.16;4204225;28;19928;-56
2023/10/24 09:35:38;;;;;;;;;;;;;;;15.30;61.41;100194.81;4212422;28;19924;-56
2023/10/24 09:37:46;;;;;;;;;;;;;;;15.33;61.48;100199.06;4208362;28;19952;-54
2023/10/24 09:40:00;;;;;;;;;;;;;;;15.33;61.51;100199.94;4196924;28;19925;-55
2023/10/24 09:42:01;;;;;;;;;;;;;;;15.34;61.19;100192.81;4198941;28;19974;-55
2023/10/24 09:44:03;;;;;;;;;;;;;;;15.34;61.37;100192.81;4198908;28;20026;-52
2023/10/24 09:46:05;;;;;;;;;;;;;;;15.37;61.06;100197.06;4198956;28;20011;-55
2023/10/24 09:48:08;;;;;;;;;;;;;;;15.36;61.44;100195.38;4198806;28;19974;-56
2023/10/24 09:50:11;;;;;;;;;;;;;;;15.36;60.95;100196.22;4201624;28;19928;-54
2023/10/24 09:52:13;;;;;;;;;;;;;;;15.37;61.08;100189.13;4210895;28;19969;-56
2023/10/24 09:54:17;;;;;;;;;;;;;;;15.36;61.00;100188.28;4205986;28;19970;-56
2023/10/24 09:56:20;;;;;;;;;;;;;;;15.37;60.96;100187.34;4180763;28;19931;-56
2023/10/24 09:58:24;;;;;;;;;;;;;;;15.38;61.29;100193.47;4198847;28;19931;-57
2023/10/24 10:00:26;;;;;;;;;;;;;;;15.39;60.98;100187.25;4198779;28;19928;-55
2023/10/24 10:02:27;;;;;;;;;;;;;;;15.39;61.17;100187.25;4205387;28;19924;-50
2023/10/24 10:04:31;;;;;;;;;;;;;;;15.39;60.96;100196.03;4206113;28;19959;-56
2023/10/24 10:06:34;;;;;;;;;;;;;;;15.39;60.97;100193.38;4215232;28;19924;-56
2023/10/24 10:08:58;;;;;;;;;;;;;;;15.40;61.19;100191.59;4203499;28;19929;-56
2023/10/24 10:11:01;;;;;;;;;;;;;;;15.41;60.77;100185.34;4215258;28;20031;-54
2023/10/24 10:13:05;;;;;;;;;;;;;;;15.41;61.07;100188.00;4209345;28;19924;-57
2023/10/24 10:15:25;;;;;;;;;;;;;;;15.41;60.82;100188.00;4208838;28;19946;-56
2023/10/24 10:17:29;;;;;;;;;;;;;;;15.40;60.89;100181.84;4211735;28;20305;-55
2023/10/24 10:19:56;;;;;;;;;;;;;;;15.41;61.07;100190.66;4198047;28;19979;-57
2023/10/24 10:22:11;;;;;;;;;;;;;;;15.41;60.83;100182.69;4198495;28;19946;-55
2023/10/24 10:24:13;;;;;;;;;;;;;;;15.47;60.72;100185.78;4205767;28;19931;-54
2023/10/24 10:26:30;;;;;;;;;;;;;;;15.59;60.34;100199.19;4209150;28;19956;-53
2023/10/24 10:28:32;;;;;;;;;;;;;;;15.65;60.44;100201.47;4205975;28;19963;-55